Time;durP1;ratioP1;P1;durP2;ratioP2;P2;SDS_P1;SDS_P2;PMS_P1;PMS_P2;Temp;Humidity;BMP_temperature;BMP_pressure;BME280_temperature;BME280_humidity;BME280_pressure;Samples;Min_cycle;Max_cycle;Signal;HPM_P1;HPM_P2
2023/07/24 00:01:12;;;;;;;4.75;2.95;;;19.30;99.90;;;;;;5055800;28;20114;-36
2023/07/24 00:03:38;;;;;;;3.92;2.15;;;19.30;99.90;;;;;;5052684;28;20679;-39
2023/07/24 00:06:03;;;;;;;2.85;2.60;;;19.20;99.90;;;;;;5053381;28;20017;-41
2023/07/24 00:08:29;;;;;;;3.10;2.33;;;19.30;99.90;;;;;;5055203;28;20469;-40
2023/07/24 00:10:55;;;;;;;2.80;2.40;;;19.30;99.90;;;;;;5055569;28;20033;-38
2023/07/24 00:13:20;;;;;;;5.50;3.20;;;19.30;99.90;;;;;;5053990;28;20371;-37
2023/07/24 00:15:46;;;;;;;2.83;2.50;;;19.20;99.90;;;;;;5055740;28;20059;-39
2023/07/24 00:18:11;;;;;;;3.83;2.47;;;19.20;99.90;;;;;;5054764;28;20061;-38
2023/07/24 00:20:37;;;;;;;5.60;2.75;;;19.20;99.90;;;;;;5052688;28;20438;-37
2023/07/24 00:23:03;;;;;;;3.05;2.50;;;19.20;99.90;;;;;;5054154;28;20100;-37
2023/07/24 00:25:28;;;;;;;4.55;2.55;;;19.20;99.90;;;;;;5054932;28;20021;-36
2023/07/24 00:27:54;;;;;;;5.60;2.78;;;19.10;99.90;;;;;;5071287;28;20039;-37
2023/07/24 00:30:20;;;;;;;2.40;2.20;;;19.10;99.90;;;;;;5069856;28;20072;-37
2023/07/24 00:32:45;;;;;;;4.25;2.67;;;19.20;99.90;;;;;;5054663;28;20032;-40
2023/07/24 00:35:11;;;;;;;3.53;2.33;;;19.10;99.90;;;;;;5054802;28;20031;-39
2023/07/24 00:37:36;;;;;;;2.80;2.38;;;19.10;99.90;;;;;;5071096;28;20448;-37
2023/07/24 00:40:03;;;;;;;5.25;2.33;;;19.10;99.90;;;;;;5073076;28;20029;-39
2023/07/24 00:42:29;;;;;;;3.37;2.60;;;19.10;99.90;;;;;;5062000;28;20067;-40
2023/07/24 00:44:55;;;;;;;4.60;3.03;;;19.10;99.90;;;;;;5074872;28;20713;-49
2023/07/24 00:47:21;;;;;;;4.63;2.70;;;19.10;99.90;;;;;;5073397;28;20485;-50
2023/07/24 00:49:48;;;;;;;2.72;2.33;;;19.00;99.90;;;;;;5069812;28;20044;-50
2023/07/24 00:52:15;;;;;;;3.77;2.67;;;19.00;99.90;;;;;;5036736;28;20029;-50
2023/07/24 00:54:41;;;;;;;5.45;2.70;;;19.00;99.90;;;;;;5034880;28;20445;-48
2023/07/24 00:57:07;;;;;;;3.28;2.38;;;19.00;99.90;;;;;;5066124;28;20073;-52
2023/07/24 00:59:34;;;;;;;6.20;2.97;;;19.00;99.90;;;;;;5055878;28;20035;-51
2023/07/24 01:02:00;;;;;;;2.75;2.45;;;19.00;99.90;;;;;;5053933;28;20059;-49
2023/07/24 01:04:25;;;;;;;4.55;2.50;;;19.00;99.90;;;;;;5053257;28;20029;-49
2023/07/24 01:06:51;;;;;;;5.07;3.33;;;19.00;99.90;;;;;;5051207;28;20021;-37
2023/07/24 01:09:17;;;;;;;3.40;2.67;;;19.00;99.90;;;;;;5069966;28;20397;-52
2023/07/24 01:12:15;;;;;;;2.97;2.58;;;19.00;99.90;;;;;;5074448;28;20469;-52
2023/07/24 01:14:52;;;;;;;3.80;2.50;;;19.00;99.90;;;;;;5051443;28;20111;-50
2023/07/24 01:17:23;;;;;;;3.50;2.47;;;19.00;99.90;;;;;;5057239;28;20033;-50
2023/07/24 01:19:54;;;;;;;3.78;2.70;;;19.00;99.90;;;;;;5054185;28;20020;-50
2023/07/24 01:22:28;;;;;;;3.45;2.28;;;18.90;99.90;;;;;;5058413;28;20029;-51
2023/07/24 01:25:17;;;;;;;2.28;1.92;;;19.00;99.90;;;;;;5051344;28;20047;-53
2023/07/24 01:27:44;;;;;;;3.55;2.45;;;19.00;99.90;;;;;;5056274;28;20021;-53
2023/07/24 01:30:10;;;;;;;2.00;1.83;;;18.90;99.90;;;;;;5059533;28;20475;-38
2023/07/24 01:32:37;;;;;;;3.03;2.25;;;19.00;99.90;;;;;;5070091;28;20032;-39
2023/07/24 01:35:03;;;;;;;2.85;2.22;;;19.00;99.90;;;;;;5063645;28;20412;-38
2023/07/24 01:37:31;;;;;;;2.70;2.03;;;19.00;99.90;;;;;;5058463;28;20037;-38
2023/07/24 01:39:57;;;;;;;3.67;2.33;;;18.90;99.90;;;;;;5053878;28;20025;-38
2023/07/24 01:42:24;;;;;;;2.17;1.98;;;18.90;99.90;;;;;;5052579;28;20107;-36
2023/07/24 01:44:54;;;;;;;7.18;2.05;;;18.90;99.90;;;;;;5054709;28;20067;-41
2023/07/24 01:47:20;;;;;;;2.83;2.15;;;19.00;99.90;;;;;;5063112;28;20478;-39
2023/07/24 01:49:46;;;;;;;3.78;2.70;;;19.00;99.90;;;;;;5052350;28;20549;-38
2023/07/24 01:52:11;;;;;;;3.03;2.30;;;19.00;99.90;;;;;;5053365;28;20092;-38
2023/07/24 01:54:37;;;;;;;2.17;1.98;;;19.00;99.90;;;;;;5060362;28;20028;-41
2023/07/24 01:57:03;;;;;;;3.60;2.40;;;19.00;99.90;;;;;;5068699;28;20070;-42
2023/07/24 01:59:28;;;;;;;2.50;2.13;;;18.90;99.90;;;;;;5059177;28;20396;-38
2023/07/24 02:01:54;;;;;;;3.38;2.42;;;19.00;99.90;;;;;;5070467;28;20412;-38
2023/07/24 02:04:22;;;;;;;3.10;2.58;;;19.00;99.90;;;;;;5073268;28;20028;-38
2023/07/24 02:06:48;;;;;;;1.98;1.85;;;18.90;99.90;;;;;;5063687;28;20056;-38
2023/07/24 02:09:14;;;;;;;2.75;2.55;;;19.00;99.90;;;;;;5056723;28;20078;-38
2023/07/24 02:11:40;;;;;;;3.97;2.25;;;18.90;99.90;;;;;;5072997;28;20013;-40
2023/07/24 02:14:05;;;;;;;4.03;2.38;;;18.90;99.90;;;;;;5050127;28;20040;-38
2023/07/24 02:16:31;;;;;;;2.83;2.08;;;18.90;99.90;;;;;;5068337;28;20032;-37
2023/07/24 02:18:57;;;;;;;2.90;2.70;;;18.90;99.90;;;;;;5069658;28;20389;-38
2023/07/24 02:21:23;;;;;;;6.03;2.30;;;19.00;99.90;;;;;;5068993;28;20434;-37
2023/07/24 02:23:48;;;;;;;2.50;2.30;;;18.90;99.90;;;;;;5052460;28;20583;-39
2023/07/24 02:26:14;;;;;;;4.30;2.40;;;18.90;99.90;;;;;;5067372;28;20077;-38
2023/07/24 02:28:39;;;;;;;3.70;2.28;;;18.90;99.90;;;;;;5067264;28;20370;-37
2023/07/24 02:31:05;;;;;;;4.47;2.10;;;18.90;99.90;;;;;;5057059;28;20430;-37
2023/07/24 02:33:31;;;;;;;2.10;1.80;;;18.90;99.90;;;;;;5051997;28;20035;-38
2023/07/24 02:35:56;;;;;;;2.20;2.00;;;18.90;99.90;;;;;;5049414;28;20025;-38
2023/07/24 02:38:22;;;;;;;2.30;2.10;;;18.90;99.90;;;;;;5053089;28;20430;-38
2023/07/24 02:40:47;;;;;;;1.88;1.52;;;18.90;99.90;;;;;;5052493;28;20031;-38
2023/07/24 02:43:13;;;;;;;2.83;2.25;;;18.90;99.90;;;;;;5052693;28;20025;-39
2023/07/24 02:45:39;;;;;;;6.15;2.70;;;18.90;99.90;;;;;;5056877;28;20481;-38
2023/07/24 02:48:05;;;;;;;2.38;2.17;;;18.90;99.90;;;;;;5052650;28;20071;-38
2023/07/24 02:50:30;;;;;;;3.10;2.17;;;18.90;99.90;;;;;;5059781;28;20032;-40
2023/07/24 02:52:56;;;;;;;5.47;2.50;;;18.90;99.90;;;;;;5051118;28;20385;-39
2023/07/24 02:55:22;;;;;;;2.80;2.55;;;18.90;99.90;;;;;;5060997;28;20037;-38
2023/07/24 02:57:47;;;;;;;3.72;2.45;;;18.90;99.90;;;;;;5052675;28;20021;-39
2023/07/24 03:00:13;;;;;;;2.83;2.30;;;18.90;99.90;;;;;;5068486;28;20036;-38
2023/07/24 03:02:39;;;;;;;2.75;2.20;;;18.80;99.90;;;;;;5072699;28;20032;-39
2023/07/24 03:05:05;;;;;;;3.55;2.55;;;18.80;99.90;;;;;;5056437;28;20063;-39
2023/07/24 03:07:31;;;;;;;7.97;2.80;;;18.80;99.90;;;;;;5054502;28;20029;-38
2023/07/24 03:09:57;;;;;;;4.38;3.05;;;18.80;99.90;;;;;;5052535;28;20025;-38
2023/07/24 03:12:23;;;;;;;4.45;2.55;;;18.80;99.90;;;;;;5052527;28;20029;-40
2023/07/24 03:14:48;;;;;;;4.65;3.13;;;18.80;99.90;;;;;;5050639;28;20033;-42
2023/07/24 03:17:14;;;;;;;3.78;2.80;;;18.90;99.90;;;;;;5072458;28;20481;-39
2023/07/24 03:19:41;;;;;;;3.65;2.97;;;18.80;99.90;;;;;;5066621;28;20029;-39
2023/07/24 03:22:07;;;;;;;5.77;3.50;;;18.70;99.90;;;;;;5062968;28;20057;-41
2023/07/24 03:24:33;;;;;;;5.18;3.45;;;18.70;99.90;;;;;;5050511;28;20334;-39
2023/07/24 03:27:00;;;;;;;7.10;3.88;;;18.80;99.90;;;;;;5071659;28;20021;-38
2023/07/24 03:29:26;;;;;;;5.38;3.50;;;18.70;99.90;;;;;;5069417;28;20447;-38
2023/07/24 03:31:51;;;;;;;5.03;3.28;;;18.70;99.90;;;;;;5055830;28;20025;-38
2023/07/24 03:34:17;;;;;;;4.28;2.97;;;18.70;99.90;;;;;;5052326;28;20033;-40
2023/07/24 03:36:43;;;;;;;5.18;3.20;;;18.70;99.90;;;;;;5060997;28;20037;-41
2023/07/24 03:39:11;;;;;;;3.78;3.25;;;18.70;99.90;;;;;;5051464;28;20033;-44
2023/07/24 03:41:42;;;;;;;5.68;3.10;;;18.60;99.90;;;;;;5055451;28;20025;-38
2023/07/24 03:44:08;;;;;;;5.25;3.20;;;18.60;99.90;;;;;;5044279;28;20477;-38
2023/07/24 03:46:34;;;;;;;4.93;3.10;;;18.60;99.90;;;;;;5051018;28;20029;-39
2023/07/24 03:48:59;;;;;;;7.63;3.38;;;18.60;99.90;;;;;;5049729;28;20018;-37
2023/07/24 03:51:25;;;;;;;4.65;3.22;;;18.60;99.90;;;;;;5061850;28;20102;-41
2023/07/24 03:53:51;;;;;;;4.13;2.90;;;18.50;99.90;;;;;;5054555;28;20035;-38
2023/07/24 03:56:16;;;;;;;3.67;2.63;;;18.50;99.90;;;;;;5072823;28;20036;-39
2023/07/24 03:58:42;;;;;;;5.22;2.90;;;18.50;99.90;;;;;;5075824;28;20481;-38
2023/07/24 04:01:08;;;;;;;4.57;2.92;;;18.40;99.90;;;;;;5074348;28;20035;-49
2023/07/24 04:03:35;;;;;;;6.25;3.05;;;18.40;99.90;;;;;;5055932;28;20040;-49
2023/07/24 04:06:00;;;;;;;4.90;2.90;;;18.40;99.90;;;;;;5061851;28;20028;-53
2023/07/24 04:08:26;;;;;;;7.10;3.30;;;18.40;99.90;;;;;;5058562;28;20029;-53
2023/07/24 04:10:52;;;;;;;7.70;3.47;;;18.40;99.90;;;;;;5064002;28;20496;-53
2023/07/24 04:13:18;;;;;;;3.78;2.72;;;18.40;99.90;;;;;;5068422;28;20039;-37
2023/07/24 04:15:46;;;;;;;4.90;3.53;;;18.40;99.90;;;;;;5075725;28;20024;-38
2023/07/24 04:18:12;;;;;;;4.97;3.13;;;18.40;99.90;;;;;;5070771;28;20484;-38
2023/07/24 04:20:37;;;;;;;4.45;2.95;;;18.30;99.90;;;;;;5070145;28;20067;-42
2023/07/24 04:23:03;;;;;;;6.43;4.18;;;18.30;99.90;;;;;;5060297;28;20108;-38
2023/07/24 04:25:29;;;;;;;4.60;2.80;;;18.40;99.90;;;;;;5055125;28;20032;-38
2023/07/24 04:27:54;;;;;;;3.97;2.67;;;18.40;99.90;;;;;;5062334;28;20031;-38
2023/07/24 04:30:20;;;;;;;5.90;3.60;;;18.40;99.90;;;;;;5053002;28;20073;-38
2023/07/24 04:32:46;;;;;;;4.65;3.45;;;18.40;99.90;;;;;;5044060;28;20024;-37
2023/07/24 04:35:12;;;;;;;4.63;3.22;;;18.40;99.90;;;;;;5052979;28;20033;-39
2023/07/24 04:37:38;;;;;;;4.35;3.10;;;18.40;99.90;;;;;;5058967;28;20025;-38
2023/07/24 04:40:05;;;;;;;5.88;2.75;;;18.40;99.90;;;;;;5055329;28;20499;-38
2023/07/24 04:42:31;;;;;;;5.10;2.40;;;18.40;99.90;;;;;;5053955;28;20059;-52
2023/07/24 04:44:56;;;;;;;5.22;3.40;;;18.40;99.90;;;;;;5055146;28;20108;-49
2023/07/24 04:47:22;;;;;;;4.78;3.38;;;18.40;99.90;;;;;;5071883;28;20115;-52
2023/07/24 04:49:48;;;;;;;6.95;3.42;;;18.40;99.90;;;;;;5065196;28;20108;-51
2023/07/24 04:52:13;;;;;;;6.03;3.13;;;18.40;99.90;;;;;;5065007;28;20493;-52
2023/07/24 04:54:39;;;;;;;5.88;3.05;;;18.40;99.90;;;;;;5057515;28;20020;-48
2023/07/24 04:57:05;;;;;;;4.15;2.88;;;18.40;99.90;;;;;;5071826;28;20028;-53
2023/07/24 04:59:31;;;;;;;5.38;2.85;;;18.40;99.90;;;;;;5060272;28;20064;-50
2023/07/24 05:01:56;;;;;;;6.53;3.90;;;18.40;99.90;;;;;;5066827;28;20040;-52
2023/07/24 05:04:22;;;;;;;7.22;3.80;;;18.40;99.90;;;;;;5055335;28;20029;-52
2023/07/24 05:06:47;;;;;;;6.18;3.60;;;18.40;99.90;;;;;;5069074;28;20465;-54
2023/07/24 05:09:14;;;;;;;9.13;3.70;;;18.40;99.90;;;;;;5056884;28;20069;-49
2023/07/24 05:11:40;;;;;;;4.88;3.47;;;18.40;99.90;;;;;;5073649;28;20024;-52
2023/07/24 05:14:05;;;;;;;6.40;3.08;;;18.40;99.90;;;;;;5073016;28;20469;-52
2023/07/24 05:16:31;;;;;;;8.75;4.28;;;18.40;99.90;;;;;;5066262;28;20033;-52
2023/07/24 05:18:57;;;;;;;7.00;4.32;;;18.40;99.90;;;;;;5037091;28;20394;-51
2023/07/24 05:21:22;;;;;;;4.28;3.35;;;18.40;99.90;;;;;;5065138;28;20035;-52
2023/07/24 05:23:48;;;;;;;4.55;2.97;;;18.40;99.90;;;;;;5052889;28;20025;-53
2023/07/24 05:26:14;;;;;;;4.43;3.53;;;18.40;99.90;;;;;;5074123;28;20103;-52
2023/07/24 05:28:39;;;;;;;7.97;3.38;;;18.50;99.90;;;;;;5074164;28;20108;-54
2023/07/24 05:31:05;;;;;;;5.07;3.67;;;18.50;99.90;;;;;;5043505;28;20041;-51
2023/07/24 05:33:31;;;;;;;6.57;3.20;;;18.50;99.90;;;;;;5048946;28;20028;-51
2023/07/24 05:35:59;;;;;;;6.20;3.63;;;18.50;99.90;;;;;;5068196;28;20482;-51
2023/07/24 05:38:24;;;;;;;6.53;3.30;;;18.60;99.90;;;;;;5056121;28;20383;-48
2023/07/24 05:40:57;;;;;;;10.23;3.38;;;18.60;99.90;;;;;;5049678;28;20063;-52
2023/07/24 05:43:23;;;;;;;9.32;3.53;;;18.70;99.90;;;;;;5052503;28;20086;-53
2023/07/24 05:45:50;;;;;;;5.32;3.25;;;18.70;99.90;;;;;;5053831;28;20022;-49
2023/07/24 05:48:16;;;;;;;6.93;3.40;;;18.80;99.90;;;;;;5053694;28;20025;-52
2023/07/24 05:50:41;;;;;;;9.27;3.70;;;18.80;99.90;;;;;;5053655;28;20470;-49
2023/07/24 05:53:07;;;;;;;5.25;3.63;;;18.90;99.90;;;;;;5051970;28;20385;-52
2023/07/24 05:55:33;;;;;;;4.05;3.20;;;19.00;99.90;;;;;;5053894;28;20056;-51
2023/07/24 05:57:58;;;;;;;4.32;2.97;;;19.00;99.90;;;;;;5053543;28;20025;-51
2023/07/24 06:00:24;;;;;;;14.07;4.05;;;19.00;99.90;;;;;;5053009;28;20037;-54
2023/07/24 06:02:50;;;;;;;4.70;3.63;;;19.10;99.90;;;;;;5050004;28;20029;-53
2023/07/24 06:05:15;;;;;;;4.35;3.00;;;19.20;99.90;;;;;;5051252;28;20036;-52
2023/07/24 06:07:41;;;;;;;7.43;3.30;;;19.20;99.90;;;;;;5051048;28;20029;-49
2023/07/24 06:10:07;;;;;;;5.57;2.63;;;19.20;99.90;;;;;;5053237;28;20107;-52
2023/07/24 06:12:33;;;;;;;4.43;3.13;;;19.20;99.90;;;;;;5051858;28;20107;-46
2023/07/24 06:14:58;;;;;;;8.38;3.60;;;19.10;99.90;;;;;;5053268;28;20466;-51
2023/07/24 06:17:24;;;;;;;8.98;3.63;;;19.10;99.90;;;;;;5043307;28;20380;-51
2023/07/24 06:19:49;;;;;;;9.07;3.50;;;19.10;99.90;;;;;;5041411;28;20031;-38
2023/07/24 06:22:15;;;;;;;8.25;3.05;;;19.10;99.90;;;;;;5048850;28;20458;-38
2023/07/24 06:24:41;;;;;;;5.13;3.50;;;19.10;99.90;;;;;;5050112;28;20024;-37
2023/07/24 06:27:06;;;;;;;10.23;3.25;;;19.10;99.90;;;;;;5052151;28;20037;-42
2023/07/24 06:29:32;;;;;;;2.80;2.40;;;19.10;99.90;;;;;;5050126;28;20503;-38
2023/07/24 06:31:58;;;;;;;5.03;2.97;;;19.10;99.90;;;;;;5038156;28;20100;-41
2023/07/24 06:34:24;;;;;;;6.07;2.90;;;19.10;99.90;;;;;;5042076;28;20041;-40
2023/07/24 06:36:49;;;;;;;6.75;2.53;;;19.20;99.90;;;;;;5041504;28;20112;-40
2023/07/24 06:39:15;;;;;;;4.47;2.38;;;19.30;99.90;;;;;;5061328;28;20564;-39
2023/07/24 06:41:41;;;;;;;3.50;2.40;;;19.30;99.90;;;;;;5053709;28;20052;-38
2023/07/24 06:44:07;;;;;;;5.68;2.90;;;19.30;99.90;;;;;;5052932;28;20552;-39
2023/07/24 06:46:33;;;;;;;6.15;3.03;;;19.30;99.90;;;;;;5054411;28;20024;-36
2023/07/24 06:48:58;;;;;;;7.72;3.40;;;19.40;99.90;;;;;;5055419;28;20504;-42
2023/07/24 06:51:24;;;;;;;11.23;3.35;;;19.30;99.90;;;;;;5047314;28;20031;-38
2023/07/24 06:53:50;;;;;;;8.07;4.57;;;19.30;99.90;;;;;;5058405;28;20028;-41
2023/07/24 06:56:16;;;;;;;8.73;3.55;;;19.30;99.90;;;;;;5056912;28;20033;-39
2023/07/24 06:58:41;;;;;;;5.45;3.03;;;19.30;99.90;;;;;;5063181;28;20097;-40
2023/07/24 07:01:07;;;;;;;7.30;2.97;;;19.30;99.90;;;;;;5054405;28;20413;-43
2023/07/24 07:03:36;;;;;;;11.27;3.53;;;19.50;99.90;;;;;;5039201;28;22513;-41
2023/07/24 07:06:02;;;;;;;7.43;3.00;;;20.00;99.90;;;;;;5051562;28;20020;-40
2023/07/24 07:08:29;;;;;;;4.60;3.30;;;21.40;99.90;;;;;;5046163;28;20082;-41
2023/07/24 07:10:59;;;;;;;7.10;2.83;;;21.90;99.90;;;;;;5045398;28;20123;-38
2023/07/24 07:13:26;;;;;;;12.45;3.35;;;22.20;99.90;;;;;;5048214;28;20078;-37
2023/07/24 07:15:51;;;;;;;6.30;3.30;;;22.30;99.90;;;;;;5041848;28;20063;-39
2023/07/24 07:18:17;;;;;;;6.05;2.58;;;22.40;99.90;;;;;;5057016;28;20500;-35
2023/07/24 07:20:50;;;;;;;5.35;3.05;;;22.00;99.90;;;;;;5043999;28;20064;-37
2023/07/24 07:23:17;;;;;;;4.22;2.55;;;21.50;99.90;;;;;;5050222;28;20025;-39
2023/07/24 07:25:44;;;;;;;4.63;2.63;;;21.20;99.90;;;;;;5044149;28;20025;-38
2023/07/24 07:28:14;;;;;;;5.97;2.33;;;21.20;99.90;;;;;;5037004;28;20028;-37
2023/07/24 07:30:40;;;;;;;6.93;2.45;;;21.70;99.90;;;;;;5064855;28;20126;-36
2023/07/24 07:33:06;;;;;;;5.53;2.80;;;22.00;99.90;;;;;;5061980;28;20021;-35
2023/07/24 07:35:32;;;;;;;6.95;2.45;;;21.90;99.90;;;;;;5076268;28;20023;-37
2023/07/24 07:37:58;;;;;;;5.07;2.13;;;21.80;99.90;;;;;;5061535;28;20487;-38
2023/07/24 07:40:24;;;;;;;5.20;2.78;;;21.60;99.90;;;;;;5057103;28;20103;-38
2023/07/24 07:42:50;;;;;;;3.67;2.15;;;21.50;99.90;;;;;;5054053;28;20029;-42
2023/07/24 07:45:15;;;;;;;3.65;2.50;;;21.30;99.90;;;;;;5066523;28;20044;-36
2023/07/24 07:47:41;;;;;;;6.32;2.15;;;21.10;99.90;;;;;;5059752;28;20055;-39
2023/07/24 07:50:07;;;;;;;9.43;2.60;;;21.10;99.90;;;;;;5055919;28;20051;-38
2023/07/24 07:52:32;;;;;;;13.80;2.63;;;21.20;99.90;;;;;;5051419;28;20417;-37
2023/07/24 07:54:58;;;;;;;9.75;2.33;;;21.30;99.90;;;;;;5051675;28;20033;-34
2023/07/24 07:57:24;;;;;;;8.85;2.28;;;21.30;99.90;;;;;;5053733;28;20040;-37
2023/07/24 07:59:49;;;;;;;3.28;2.10;;;21.10;99.90;;;;;;5050299;28;20091;-42
2023/07/24 08:02:15;;;;;;;3.47;2.78;;;21.00;99.90;;;;;;5050328;28;20434;-37
2023/07/24 08:04:40;;;;;;;4.95;3.17;;;20.90;99.90;;;;;;5063189;28;20059;-35
2023/07/24 08:07:06;;;;;;;10.25;3.38;;;21.00;99.90;;;;;;5058151;28;20025;-37
2023/07/24 08:09:33;;;;;;;4.25;3.15;;;21.00;99.90;;;;;;5063550;28;20017;-37
2023/07/24 08:11:59;;;;;;;6.60;3.20;;;21.00;99.90;;;;;;5053106;28;20033;-37
2023/07/24 08:14:25;;;;;;;7.32;3.70;;;21.00;99.90;;;;;;5052446;28;20703;-35
2023/07/24 08:16:51;;;;;;;9.18;3.72;;;21.10;99.90;;;;;;5040648;28;20025;-37
2023/07/24 08:19:16;;;;;;;5.25;4.00;;;21.20;99.90;;;;;;5052536;28;20385;-36
2023/07/24 08:21:42;;;;;;;9.45;3.55;;;21.40;99.90;;;;;;5041604;28;20029;-37
2023/07/24 08:24:08;;;;;;;8.27;4.30;;;21.80;99.90;;;;;;5054240;28;20481;-38
2023/07/24 08:26:33;;;;;;;5.43;3.30;;;21.90;99.90;;;;;;5051822;28;20017;-38
2023/07/24 08:28:59;;;;;;;5.95;3.70;;;22.20;99.90;;;;;;5055028;28;20477;-38
2023/07/24 08:31:24;;;;;;;6.18;3.22;;;22.40;99.90;;;;;;5046567;28;20643;-37
2023/07/24 08:33:50;;;;;;;7.55;3.13;;;22.60;99.90;;;;;;5051105;28;20024;-38
2023/07/24 08:36:16;;;;;;;5.65;2.70;;;22.80;99.90;;;;;;5052140;28;20498;-35
2023/07/24 08:38:42;;;;;;;6.38;3.58;;;22.90;99.90;;;;;;5051417;28;20036;-43
2023/07/24 08:41:08;;;;;;;3.75;2.75;;;23.10;99.90;;;;;;5049353;28;20033;-40
2023/07/24 08:43:35;;;;;;;5.30;2.88;;;23.40;99.90;;;;;;5049505;28;20418;-42
2023/07/24 08:46:02;;;;;;;3.42;2.58;;;23.70;99.90;;;;;;5049636;28;20061;-37
2023/07/24 08:48:35;;;;;;;4.15;2.75;;;23.90;99.90;;;;;;5052877;28;20029;-44
2023/07/24 08:51:03;;;;;;;23.40;3.75;;;24.10;99.90;;;;;;5046756;28;20021;-54
2023/07/24 08:53:30;;;;;;;5.78;3.03;;;24.30;99.90;;;;;;5048409;28;20150;-50
2023/07/24 08:55:56;;;;;;;8.05;2.75;;;24.00;99.90;;;;;;5054540;28;20102;-55
2023/07/24 08:58:22;;;;;;;6.43;2.45;;;23.50;99.90;;;;;;5054787;28;20052;-52
2023/07/24 09:00:48;;;;;;;2.65;2.38;;;23.10;99.90;;;;;;5054745;28;20524;-48
2023/07/24 09:03:20;;;;;;;8.70;3.00;;;22.60;99.90;;;;;;5054594;28;20025;-53
2023/07/24 09:05:46;;;;;;;6.68;3.65;;;22.40;99.90;;;;;;5054633;28;20082;-48
2023/07/24 09:08:12;;;;;;;6.85;3.05;;;22.20;99.90;;;;;;5054846;28;20020;-51
2023/07/24 09:10:37;;;;;;;5.38;3.22;;;21.90;99.90;;;;;;5054539;28;20478;-51
2023/07/24 09:13:03;;;;;;;9.88;3.33;;;21.80;99.90;;;;;;5054705;28;20079;-50
2023/07/24 09:15:39;;;;;;;5.55;4.07;;;21.70;99.90;;;;;;5054733;28;20029;-51
2023/07/24 09:18:05;;;;;;;6.43;3.50;;;21.50;99.90;;;;;;5054456;28;20040;-50
2023/07/24 09:20:41;;;;;;;11.65;3.67;;;21.50;99.90;;;;;;5053078;28;20401;-51
2023/07/24 09:23:08;;;;;;;6.40;3.55;;;21.40;99.90;;;;;;5054335;28;20454;-41
2023/07/24 09:25:36;;;;;;;6.97;3.47;;;21.30;99.90;;;;;;5054111;28;20033;-37
2023/07/24 09:28:15;;;;;;;10.40;5.03;;;21.30;99.90;;;;;;5054197;28;20390;-39
2023/07/24 09:30:43;;;;;;;4.22;3.15;;;21.20;99.90;;;;;;5053803;28;20087;-40
2023/07/24 09:33:09;;;;;;;12.07;3.72;;;21.00;99.90;;;;;;5054078;28;20529;-36
2023/07/24 09:35:35;;;;;;;4.70;3.58;;;21.00;99.90;;;;;;5054071;28;20031;-39
2023/07/24 09:38:11;;;;;;;10.77;3.75;;;21.00;99.90;;;;;;5052689;28;20055;-37
2023/07/24 09:40:44;;;;;;;5.45;3.15;;;21.00;99.90;;;;;;5053944;28;20025;-41
2023/07/24 09:43:27;;;;;;;3.60;2.95;;;21.00;99.90;;;;;;5054196;28;20106;-41
2023/07/24 09:45:53;;;;;;;6.15;3.25;;;21.00;99.90;;;;;;5053925;28;20043;-36
2023/07/24 09:48:21;;;;;;;10.77;3.37;;;21.30;99.90;;;;;;5054089;28;20021;-38
2023/07/24 09:50:49;;;;;;;5.40;2.88;;;21.40;99.90;;;;;;5053120;28;20532;-39
2023/07/24 09:53:29;;;;;;;8.88;3.55;;;21.50;99.90;;;;;;5053780;28;20035;-37
2023/07/24 09:56:00;;;;;;;7.38;2.90;;;21.80;99.90;;;;;;5053980;28;20033;-39
2023/07/24 09:58:26;;;;;;;3.55;3.25;;;22.30;99.90;;;;;;5053919;28;20062;-43
2023/07/24 10:00:53;;;;;;;6.60;2.80;;;22.40;99.90;;;;;;5053887;28;20104;-37
2023/07/24 10:03:20;;;;;;;4.65;2.78;;;22.30;99.90;;;;;;5053772;28;20108;-39
2023/07/24 10:05:46;;;;;;;3.55;2.70;;;22.40;99.90;;;;;;5053488;28;20029;-38
2023/07/24 10:08:16;;;;;;;8.90;3.08;;;22.40;99.90;;;;;;5053530;28;20481;-39
2023/07/24 10:10:43;;;;;;;5.13;2.85;;;22.50;99.90;;;;;;5053315;28;20021;-37
2023/07/24 10:13:10;;;;;;;4.80;2.88;;;22.50;99.90;;;;;;5053670;28;20018;-37
2023/07/24 10:15:38;;;;;;;4.88;3.25;;;22.60;99.90;;;;;;5053292;28;20112;-37
2023/07/24 10:18:06;;;;;;;6.78;3.00;;;22.90;99.90;;;;;;5053319;28;20501;-37
2023/07/24 10:20:36;;;;;;;8.57;2.80;;;23.50;99.90;;;;;;5052972;28;20084;-40
2023/07/24 10:23:03;;;;;;;10.25;2.65;;;23.90;99.90;;;;;;5053158;28;20481;-36
2023/07/24 10:25:33;;;;;;;6.53;3.23;;;24.10;99.90;;;;;;5052973;28;20085;-37
2023/07/24 10:28:10;;;;;;;8.90;3.33;;;24.00;99.90;;;;;;5053051;28;20276;-37
2023/07/24 10:30:43;;;;;;;8.30;3.20;;;23.70;99.90;;;;;;5051576;28;20029;-36
2023/07/24 10:33:32;;;;;;;11.50;3.20;;;23.40;99.90;;;;;;5053315;28;20079;-38
2023/07/24 10:36:10;;;;;;;5.97;3.70;;;23.40;99.90;;;;;;5052435;28;20059;-39
2023/07/24 10:38:41;;;;;;;7.50;3.85;;;23.30;99.90;;;;;;5053228;28;20382;-39
2023/07/24 10:41:08;;;;;;;3.72;3.30;;;23.50;99.90;;;;;;5052922;28;20103;-44
2023/07/24 10:43:47;;;;;;;5.38;3.40;;;23.80;99.90;;;;;;5052691;28;20029;-41
2023/07/24 10:46:14;;;;;;;3.38;2.92;;;23.90;99.90;;;;;;5053081;28;20489;-40
2023/07/24 10:48:47;;;;;;;5.43;2.97;;;24.00;99.90;;;;;;5052790;28;20025;-36
2023/07/24 10:51:16;;;;;;;4.72;3.30;;;23.90;99.90;;;;;;5052949;28;20079;-39
2023/07/24 10:53:51;;;;;;;7.80;3.05;;;23.80;99.90;;;;;;5052721;28;20056;-39
2023/07/24 10:56:17;;;;;;;9.25;3.17;;;23.70;99.90;;;;;;5052884;28;20543;-37
2023/07/24 10:58:43;;;;;;;4.05;2.80;;;23.50;99.90;;;;;;5052683;28;20029;-40
2023/07/24 11:01:10;;;;;;;4.38;3.13;;;23.40;99.90;;;;;;5052678;28;20041;-38
2023/07/24 11:03:37;;;;;;;;;;;23.40;99.90;;;;;;5052654;28;20025;-38
2023/07/24 11:06:03;;;;;;;4.65;3.15;;;23.60;99.90;;;;;;5052625;28;19931;-43
2023/07/24 11:08:29;;;;;;;4.60;2.75;;;23.70;99.90;;;;;;5052761;28;20035;-40
2023/07/24 11:10:57;;;;;;;6.53;3.00;;;23.70;99.90;;;;;;5052560;28;20033;-39
2023/07/24 11:13:25;;;;;;;7.30;3.83;;;23.60;99.90;;;;;;5052407;28;20029;-37
2023/07/24 11:15:54;;;;;;;11.23;3.72;;;23.40;99.90;;;;;;5052686;28;20051;-39
2023/07/24 11:18:21;;;;;;;5.45;3.08;;;23.50;99.90;;;;;;5052402;28;20025;-38
2023/07/24 11:20:52;;;;;;;8.43;3.30;;;23.30;99.90;;;;;;5052690;28;20029;-39
2023/07/24 11:23:18;;;;;;;5.82;3.35;;;23.10;99.90;;;;;;5052391;28;20100;-40
2023/07/24 11:25:44;;;;;;;6.05;3.30;;;23.10;99.90;;;;;;5052069;28;20124;-41
2023/07/24 11:28:11;;;;;;;4.40;3.58;;;23.00;99.90;;;;;;5052364;28;20029;-39
2023/07/24 11:30:37;;;;;;;;;;;23.00;99.90;;;;;;5052586;28;20048;-38
2023/07/24 11:33:06;;;;;;;4.47;2.63;;;23.00;99.90;;;;;;5052537;28;19909;-40
2023/07/24 11:35:32;;;;;;;5.35;3.25;;;23.20;99.90;;;;;;5052556;28;20025;-40
2023/07/24 11:37:58;;;;;;;3.65;2.55;;;23.50;99.90;;;;;;5051058;28;20021;-37
2023/07/24 11:40:44;;;;;;;3.35;2.83;;;23.60;99.90;;;;;;5052533;28;20448;-37
2023/07/24 11:43:21;;;;;;;6.80;3.10;;;23.20;99.90;;;;;;5052334;28;20045;-39
2023/07/24 11:45:53;;;;;;;2.85;2.65;;;23.00;99.90;;;;;;5052468;28;20033;-38
2023/07/24 11:48:24;;;;;;;3.28;2.08;;;22.90;99.90;;;;;;5052215;28;20033;-38
2023/07/24 11:50:52;;;;;;;3.75;2.65;;;23.10;99.90;;;;;;5052108;28;20104;-39
2023/07/24 11:53:31;;;;;;;3.95;2.63;;;23.50;99.90;;;;;;5052104;28;20029;-36
2023/07/24 11:56:03;;;;;;;5.03;3.10;;;23.70;99.90;;;;;;5052095;28;20083;-38
2023/07/24 11:58:30;;;;;;;7.32;3.30;;;23.60;99.90;;;;;;5052347;28;20021;-51
2023/07/24 12:00:56;;;;;;;5.20;3.53;;;23.40;99.90;;;;;;5052022;28;20033;-52
2023/07/24 12:03:26;;;;;;;5.22;3.10;;;23.10;99.90;;;;;;5052071;28;20478;-50
2023/07/24 12:05:52;;;;;;;6.10;3.42;;;22.70;99.90;;;;;;5052326;28;20028;-52
2023/07/24 12:08:32;;;;;;;5.70;2.95;;;22.40;99.90;;;;;;5051789;28;20051;-48
2023/07/24 12:10:58;;;;;;;6.15;3.30;;;22.10;99.90;;;;;;5051957;28;20033;-52
2023/07/24 12:13:23;;;;;;;8.30;4.47;;;22.00;99.90;;;;;;5051968;28;20040;-52
2023/07/24 12:15:49;;;;;;;5.78;3.67;;;21.80;99.90;;;;;;5054954;28;20486;-53
2023/07/24 12:18:15;;;;;;;7.05;3.78;;;21.50;99.90;;;;;;5055572;28;20120;-51
2023/07/24 12:20:41;;;;;;;8.20;4.72;;;21.30;99.90;;;;;;5055499;28;20021;-52
2023/07/24 12:23:07;;;;;;;8.68;4.68;;;20.90;99.90;;;;;;5055626;28;20051;-53
2023/07/24 12:25:32;;;;;;;9.45;5.25;;;20.70;99.90;;;;;;5055225;28;20078;-49
2023/07/24 12:27:58;;;;;;;10.82;5.75;;;20.30;99.90;;;;;;5055217;28;20486;-49
2023/07/24 12:30:24;;;;;;;9.57;5.78;;;20.00;99.90;;;;;;5055077;28;20450;-49
2023/07/24 12:32:50;;;;;;;14.27;5.88;;;19.60;99.90;;;;;;5055469;28;20035;-48
2023/07/24 12:35:16;;;;;;;9.13;5.40;;;19.40;99.90;;;;;;5055232;28;20064;-46
2023/07/24 12:37:42;;;;;;;5.97;4.93;;;19.20;99.90;;;;;;5053888;28;20457;-44
2023/07/24 12:40:09;;;;;;;5.80;5.18;;;19.10;99.90;;;;;;5055146;28;20083;-50
2023/07/24 12:42:35;;;;;;;13.10;5.82;;;19.00;99.90;;;;;;5055125;28;20060;-49
2023/07/24 12:45:02;;;;;;;12.52;5.82;;;19.00;99.90;;;;;;5054931;28;20501;-47
2023/07/24 12:47:28;;;;;;;;;;;18.90;99.90;;;;;;5054126;28;20090;-50